Time;durP1;ratioP1;P1;durP2;ratioP2;P2;SDS_P1;SDS_P2;PMS_P1;PMS_P2;Temp;Humidity;BMP_temperature;BMP_pressure;BME280_temperature;BME280_humidity;BME280_pressure;Samples;Min_cycle;Max_cycle;Signal;HPM_P1;HPM_P2
2024/02/08 00:01:16;;;;;;;10.33;5.47;;;0.30;99.90;;;;;;5045200;28;20199;-81
2024/02/08 00:03:43;;;;;;;12.73;5.20;;;0.30;99.90;;;;;;5049106;28;20297;-81
2024/02/08 00:06:10;;;;;;;11.97;5.40;;;0.20;99.90;;;;;;5041204;28;20203;-81
2024/02/08 00:08:37;;;;;;;12.33;4.93;;;0.20;99.90;;;;;;5039474;28;20235;-82
2024/02/08 00:11:06;;;;;;;13.47;5.17;;;0.30;99.90;;;;;;5052078;28;20203;-79
2024/02/08 00:13:34;;;;;;;10.23;4.80;;;0.30;99.90;;;;;;5045844;28;20222;-80
2024/02/08 00:16:01;;;;;;;16.67;5.23;;;0.50;99.90;;;;;;5042044;28;20207;-81
2024/02/08 00:18:28;;;;;;;11.63;4.93;;;0.50;99.90;;;;;;5046679;28;20254;-81
2024/02/08 00:20:55;;;;;;;15.53;5.27;;;0.50;99.90;;;;;;5045288;28;20209;-81
2024/02/08 00:23:22;;;;;;;10.20;4.87;;;0.50;99.90;;;;;;5043837;28;20205;-80
2024/02/08 00:25:50;;;;;;;13.10;5.00;;;0.40;99.90;;;;;;5043336;28;20207;-79
2024/02/08 00:28:17;;;;;;;14.33;5.13;;;0.40;99.90;;;;;;5052219;28;20314;-80
2024/02/08 00:30:45;;;;;;;13.63;5.00;;;0.30;99.90;;;;;;5050056;28;20222;-82
2024/02/08 00:33:12;;;;;;;12.00;4.97;;;0.20;99.90;;;;;;5051278;28;20199;-81
2024/02/08 00:35:39;;;;;;;14.50;4.70;;;0.20;99.90;;;;;;5046734;28;20214;-80
2024/02/08 00:38:05;;;;;;;13.17;4.40;;;0.20;99.90;;;;;;5051089;28;20591;-81
2024/02/08 00:40:32;;;;;;;11.97;4.47;;;0.30;99.90;;;;;;5051295;28;20555;-81
2024/02/08 00:43:01;;;;;;;14.37;4.83;;;0.40;99.90;;;;;;5050944;28;20199;-80
2024/02/08 00:45:30;;;;;;;9.37;4.97;;;0.40;99.90;;;;;;5052039;28;20294;-80
2024/02/08 00:47:58;;;;;;;13.83;5.50;;;0.40;99.90;;;;;;5050467;28;20216;-81
2024/02/08 00:50:24;;;;;;;13.10;5.60;;;0.30;99.90;;;;;;5052635;28;20219;-81
2024/02/08 00:52:52;;;;;;;10.83;4.93;;;0.30;99.90;;;;;;5051455;28;20567;-81
2024/02/08 00:55:19;;;;;;;11.07;4.90;;;0.50;99.90;;;;;;5054255;28;20211;-81
2024/02/08 00:57:46;;;;;;;9.23;5.37;;;0.70;99.90;;;;;;5050204;28;20226;-80
2024/02/08 01:00:14;;;;;;;8.63;4.83;;;0.60;99.90;;;;;;5045458;28;20233;-81
2024/02/08 01:02:41;;;;;;;11.13;4.93;;;0.60;99.90;;;;;;5040816;28;20211;-81
2024/02/08 01:05:09;;;;;;;18.23;5.80;;;0.50;99.90;;;;;;5045283;28;20214;-79
2024/02/08 01:07:36;;;;;;;11.70;5.23;;;0.40;99.90;;;;;;5048150;28;20235;-78
2024/02/08 01:10:07;;;;;;;11.83;5.23;;;0.30;99.90;;;;;;5047150;28;20215;-81
2024/02/08 01:12:33;;;;;;;9.53;4.73;;;0.40;99.90;;;;;;5042135;28;20207;-80
2024/02/08 01:15:00;;;;;;;12.97;6.40;;;0.50;99.90;;;;;;5045204;28;20195;-81
2024/02/08 01:17:27;;;;;;;10.43;4.90;;;0.40;99.90;;;;;;5048866;28;20223;-80
2024/02/08 01:19:55;;;;;;;10.87;4.93;;;0.30;99.90;;;;;;5041526;28;20207;-81
2024/02/08 01:22:23;;;;;;;12.40;5.10;;;0.30;99.90;;;;;;5044900;28;20809;-81
2024/02/08 01:24:50;;;;;;;13.90;5.47;;;0.30;99.90;;;;;;5045592;28;20200;-81
2024/02/08 01:27:20;;;;;;;11.97;5.40;;;0.50;99.90;;;;;;5048762;28;20222;-81
2024/02/08 01:29:47;;;;;;;10.87;4.40;;;0.60;99.90;;;;;;5051828;28;20246;-81
2024/02/08 01:32:15;;;;;;;11.97;5.00;;;0.60;99.90;;;;;;5046108;28;20196;-81
2024/02/08 01:34:44;;;;;;;12.23;5.20;;;0.60;99.90;;;;;;5043724;28;20246;-81
2024/02/08 01:37:13;;;;;;;15.30;4.67;;;0.60;99.90;;;;;;5045236;28;20720;-82
2024/02/08 01:39:41;;;;;;;14.07;5.77;;;0.60;99.90;;;;;;5051542;28;20632;-81
2024/02/08 01:42:11;;;;;;;11.40;4.90;;;0.50;99.90;;;;;;5045734;28;20202;-81
2024/02/08 01:44:43;;;;;;;11.23;4.93;;;0.30;99.90;;;;;;5048289;28;20410;-80
2024/02/08 01:47:10;;;;;;;7.57;4.37;;;0.30;99.90;;;;;;5053420;28;20223;-81
2024/02/08 01:49:37;;;;;;;14.20;5.00;;;0.30;99.90;;;;;;5047131;28;20219;-81
2024/02/08 01:52:05;;;;;;;11.30;5.17;;;0.30;99.90;;;;;;5056042;28;20200;-80
2024/02/08 01:54:34;;;;;;;12.40;5.00;;;0.30;99.90;;;;;;5058262;28;20285;-81
2024/02/08 01:57:03;;;;;;;11.53;5.00;;;0.30;99.90;;;;;;5048201;28;20310;-78
2024/02/08 01:59:31;;;;;;;10.17;5.10;;;0.30;99.90;;;;;;5048516;28;20398;-81
2024/02/08 02:02:01;;;;;;;12.27;5.50;;;0.80;99.90;;;;;;5043667;28;20290;-78
2024/02/08 02:04:30;;;;;;;11.33;5.27;;;0.50;99.90;;;;;;5049670;28;20203;-81
2024/02/08 02:07:00;;;;;;;14.07;5.10;;;0.60;99.90;;;;;;5051237;28;20230;-79
2024/02/08 02:09:30;;;;;;;11.07;5.10;;;0.50;99.90;;;;;;5045933;28;20231;-80
2024/02/08 02:12:02;;;;;;;10.23;4.90;;;0.50;99.90;;;;;;5040199;28;20210;-79
2024/02/08 02:14:31;;;;;;;12.37;4.57;;;0.50;99.90;;;;;;5045724;28;20207;-81
2024/02/08 02:17:10;;;;;;;11.07;5.27;;;0.50;99.90;;;;;;5042798;28;20219;-80
2024/02/08 02:19:38;;;;;;;12.30;5.13;;;0.70;99.90;;;;;;5042202;28;20195;-80
2024/02/08 02:22:08;;;;;;;11.40;4.73;;;0.60;99.90;;;;;;5041724;28;20203;-81
2024/02/08 02:24:36;;;;;;;12.17;5.00;;;0.60;99.90;;;;;;5040083;28;20239;-81
2024/02/08 02:27:05;;;;;;;11.47;4.90;;;0.60;99.90;;;;;;5040741;28;20226;-81
2024/02/08 02:29:32;;;;;;;13.23;5.00;;;0.70;99.90;;;;;;5042922;28;20203;-79
2024/02/08 02:32:00;;;;;;;11.73;5.90;;;0.60;99.90;;;;;;5042640;28;20207;-81
2024/02/08 02:34:30;;;;;;;10.70;4.70;;;0.60;99.90;;;;;;5050074;28;20213;-81
2024/02/08 02:36:59;;;;;;;13.60;5.20;;;0.80;99.90;;;;;;5050502;28;20254;-82
2024/02/08 02:39:31;;;;;;;12.43;4.73;;;0.90;99.90;;;;;;5051564;28;20195;-81
2024/02/08 02:41:58;;;;;;;10.27;4.63;;;0.90;99.90;;;;;;5046032;28;20215;-78
2024/02/08 02:44:27;;;;;;;9.43;4.70;;;0.80;99.90;;;;;;5047606;28;20205;-79
2024/02/08 02:46:54;;;;;;;8.70;4.40;;;0.80;99.90;;;;;;5047196;28;20226;-83
2024/02/08 02:49:22;;;;;;;9.70;4.10;;;0.90;99.90;;;;;;5045692;28;20294;-81
2024/02/08 02:51:48;;;;;;;10.97;4.40;;;0.80;99.90;;;;;;5048679;28;20203;-81
2024/02/08 02:54:16;;;;;;;12.43;4.37;;;0.70;99.90;;;;;;5046375;28;20235;-80
2024/02/08 02:56:47;;;;;;;8.43;4.43;;;0.70;99.90;;;;;;5046664;28;20203;-80
2024/02/08 02:59:16;;;;;;;15.70;4.20;;;0.70;99.90;;;;;;5039459;28;20203;-81
2024/02/08 03:01:47;;;;;;;11.57;4.60;;;0.70;99.90;;;;;;5040908;28;20200;-80
2024/02/08 03:04:14;;;;;;;9.93;4.70;;;0.70;99.90;;;;;;5040383;28;20567;-81
2024/02/08 03:06:42;;;;;;;9.67;4.00;;;0.60;99.90;;;;;;5037826;28;20712;-82
2024/02/08 03:09:15;;;;;;;11.53;4.07;;;0.60;99.90;;;;;;5039782;28;20219;-81
2024/02/08 03:11:44;;;;;;;8.93;4.30;;;0.60;99.90;;;;;;5042417;28;20713;-81
2024/02/08 03:14:11;;;;;;;9.50;3.90;;;0.70;99.90;;;;;;5055739;28;20202;-81
2024/02/08 03:16:41;;;;;;;11.67;4.77;;;0.80;99.90;;;;;;5051645;28;20195;-81
2024/02/08 03:19:08;;;;;;;10.50;4.43;;;0.80;99.90;;;;;;5049318;28;20203;-79
2024/02/08 03:21:35;;;;;;;14.70;4.47;;;0.70;99.90;;;;;;5049701;28;20210;-81
2024/02/08 03:24:07;;;;;;;9.93;4.80;;;0.80;99.90;;;;;;5044849;28;20262;-81
2024/02/08 03:26:40;;;;;;;12.20;4.47;;;0.90;99.90;;;;;;5049179;28;20285;-81
2024/02/08 03:29:11;;;;;;;10.17;5.10;;;1.00;99.90;;;;;;5051558;28;20230;-82
2024/02/08 03:31:44;;;;;;;9.57;4.20;;;1.00;99.90;;;;;;5047485;28;20226;-80
2024/02/08 03:34:19;;;;;;;15.60;4.97;;;0.90;99.90;;;;;;5054856;28;20214;-81
2024/02/08 03:36:46;;;;;;;15.63;4.73;;;0.90;99.90;;;;;;5050481;28;20239;-81
2024/02/08 03:39:24;;;;;;;16.70;5.47;;;1.00;99.90;;;;;;5050055;28;20206;-81
2024/02/08 03:41:53;;;;;;;13.20;5.33;;;1.10;99.90;;;;;;5047030;28;20203;-81
2024/02/08 03:44:21;;;;;;;10.83;5.10;;;1.10;99.90;;;;;;5050961;28;20215;-82
2024/02/08 03:46:51;;;;;;;12.23;4.90;;;1.20;99.90;;;;;;5053387;28;20225;-80
2024/02/08 03:49:19;;;;;;;11.47;5.13;;;1.10;99.90;;;;;;5054637;28;20579;-81
2024/02/08 03:51:47;;;;;;;12.47;5.40;;;1.00;99.90;;;;;;5053622;28;20246;-80
2024/02/08 03:54:16;;;;;;;11.73;4.57;;;1.00;99.90;;;;;;5054992;28;20210;-80
2024/02/08 03:56:45;;;;;;;9.60;5.03;;;1.00;99.90;;;;;;5052086;28;20199;-81
2024/02/08 03:59:26;;;;;;;16.27;5.10;;;1.00;99.90;;;;;;5054877;28;20257;-79
2024/02/08 04:02:00;;;;;;;17.33;4.80;;;1.10;99.90;;;;;;5047952;28;20207;-80
2024/02/08 04:04:30;;;;;;;12.70;4.83;;;1.60;99.90;;;;;;5054232;28;20285;-79
2024/02/08 04:07:14;;;;;;;14.47;5.40;;;1.10;99.90;;;;;;5041237;28;20315;-81
2024/02/08 04:09:48;;;;;;;11.30;5.17;;;1.10;99.90;;;;;;5043602;28;20550;-79
2024/02/08 04:53:44;;;;;;;10.13;5.17;;;1.20;99.90;;;;;;4992524;28;20247;-82
2024/02/08 04:56:12;;;;;;;12.47;5.50;;;1.10;99.90;;;;;;5029476;28;20222;-83
2024/02/08 04:58:41;;;;;;;12.43;5.23;;;1.10;99.90;;;;;;5054364;28;20639;-82
2024/02/08 05:01:08;;;;;;;11.80;5.20;;;1.20;99.90;;;;;;5049123;28;20211;-83
2024/02/08 05:03:37;;;;;;;13.47;6.07;;;1.10;99.90;;;;;;5056177;28;20218;-82
2024/02/08 05:06:14;;;;;;;11.23;5.00;;;1.20;99.90;;;;;;5056193;28;20661;-83
2024/02/08 05:08:42;;;;;;;10.03;5.10;;;1.10;99.90;;;;;;5055424;28;20234;-82
2024/02/08 05:11:10;;;;;;;9.40;4.90;;;1.10;99.90;;;;;;5047322;28;20226;-82
2024/02/08 05:13:43;;;;;;;12.83;5.03;;;1.10;99.90;;;;;;5057374;28;20211;-83
2024/02/08 05:16:15;;;;;;;12.57;5.27;;;1.10;99.90;;;;;;5054590;28;20926;-82
2024/02/08 05:18:42;;;;;;;16.23;5.37;;;1.10;99.90;;;;;;5042914;28;20219;-83
2024/02/08 05:21:11;;;;;;;12.33;4.77;;;1.10;99.90;;;;;;5048832;28;20207;-82
2024/02/08 05:23:40;;;;;;;15.87;5.97;;;1.10;99.90;;;;;;5051344;28;20705;-82
2024/02/08 05:26:09;;;;;;;17.50;5.77;;;1.10;99.90;;;;;;5054952;28;20289;-83
2024/02/08 05:28:36;;;;;;;18.07;5.60;;;1.20;99.90;;;;;;5055223;28;20231;-81
2024/02/08 05:31:04;;;;;;;13.33;5.53;;;1.20;99.90;;;;;;5051419;28;20222;-81
2024/02/08 05:33:32;;;;;;;14.00;5.30;;;1.20;99.90;;;;;;5055693;28;20242;-81
2024/02/08 05:36:00;;;;;;;15.27;5.60;;;1.30;99.90;;;;;;5052116;28;20237;-83
2024/02/08 05:38:37;;;;;;;10.77;5.17;;;1.30;99.90;;;;;;5054389;28;20233;-81
2024/02/08 05:41:06;;;;;;;14.00;5.73;;;1.40;99.90;;;;;;5051159;28;20202;-83
2024/02/08 05:43:41;;;;;;;13.77;6.67;;;1.40;99.90;;;;;;5053871;28;20207;-82
2024/02/08 05:46:09;;;;;;;12.13;5.17;;;1.40;99.90;;;;;;5052752;28;20229;-83
2024/02/08 05:48:39;;;;;;;11.93;5.40;;;1.30;99.90;;;;;;5055893;28;20282;-83
2024/02/08 05:51:11;;;;;;;14.77;5.60;;;1.30;99.90;;;;;;5054610;28;20227;-81
2024/02/08 05:53:40;;;;;;;13.20;5.60;;;1.40;99.90;;;;;;5057271;28;20226;-81
2024/02/08 05:56:08;;;;;;;15.30;6.17;;;1.30;99.90;;;;;;5048486;28;20199;-82
2024/02/08 05:58:37;;;;;;;14.20;6.40;;;1.40;99.90;;;;;;5054262;28;20227;-82
2024/02/08 06:01:16;;;;;;;18.30;7.13;;;1.50;99.90;;;;;;5043851;28;20547;-82
2024/02/08 06:03:46;;;;;;;12.03;5.83;;;1.50;99.90;;;;;;5049781;28;20256;-82
2024/02/08 06:06:25;;;;;;;12.30;5.77;;;1.50;99.90;;;;;;5050912;28;20207;-82
2024/02/08 06:08:56;;;;;;;11.87;5.40;;;1.50;99.90;;;;;;5054046;28;20265;-83
2024/02/08 06:11:24;;;;;;;16.17;5.60;;;1.30;99.90;;;;;;5048391;28;20583;-82
2024/02/08 06:13:58;;;;;;;14.57;6.03;;;1.30;99.90;;;;;;5043410;28;20199;-82
2024/02/08 06:16:33;;;;;;;15.67;6.37;;;1.20;99.90;;;;;;5050439;28;20210;-82
2024/02/08 06:19:03;;;;;;;16.63;6.53;;;1.30;99.90;;;;;;5048201;28;20215;-83
2024/02/08 06:21:40;;;;;;;12.43;6.37;;;1.40;99.90;;;;;;5054134;28;20206;-81
2024/02/08 06:26:58;;;;;;;17.67;6.30;;;1.40;99.90;;;;;;5045164;28;20219;-83
2024/02/08 06:29:26;;;;;;;12.90;5.77;;;1.50;99.90;;;;;;5042231;28;20207;-82
2024/02/08 06:32:02;;;;;;;14.17;6.37;;;1.50;99.90;;;;;;5051283;28;20243;-82
2024/02/08 06:34:42;;;;;;;15.20;6.43;;;1.30;99.90;;;;;;5044124;28;20210;-83
2024/02/08 06:37:26;;;;;;;13.27;6.10;;;1.20;99.90;;;;;;5053527;28;20237;-82
2024/02/08 06:39:56;;;;;;;12.87;6.60;;;1.30;99.90;;;;;;5049958;28;20249;-82
2024/02/08 06:43:15;;;;;;;16.27;7.17;;;1.20;99.90;;;;;;5043154;28;20207;-83
2024/02/08 07:37:39;;;;;;;15.13;6.63;;;1.50;99.90;;;;;;5052966;28;20285;-82
2024/02/08 07:40:24;;;;;;;16.87;6.80;;;1.50;99.90;;;;;;5054232;28;20299;-83
2024/02/08 07:42:53;;;;;;;18.63;7.40;;;1.50;99.90;;;;;;5047643;28;20272;-82
2024/02/08 07:45:27;;;;;;;17.53;8.30;;;1.60;99.90;;;;;;5058122;28;20195;-82
2024/02/08 07:48:10;;;;;;;20.17;9.33;;;1.60;99.90;;;;;;5051694;28;20708;-81
2024/02/08 07:50:44;;;;;;;21.73;9.10;;;1.70;99.90;;;;;;5049968;28;20218;-82
2024/02/08 07:53:19;;;;;;;18.67;8.40;;;2.00;99.90;;;;;;5050255;28;20592;-82
2024/02/08 07:55:57;;;;;;;18.63;9.03;;;2.10;99.90;;;;;;5054404;28;20640;-82
2024/02/08 07:58:27;;;;;;;21.33;9.17;;;1.70;99.90;;;;;;5046454;28;20224;-82
2024/02/08 08:00:57;;;;;;;18.90;8.83;;;1.90;99.90;;;;;;5058299;28;20199;-81
2024/02/08 08:03:31;;;;;;;18.23;8.83;;;2.00;99.90;;;;;;5056282;28;20690;-82
2024/02/08 08:05:59;;;;;;;17.30;8.50;;;2.00;99.90;;;;;;5055169;28;20207;-82
2024/02/08 08:08:26;;;;;;;19.13;9.27;;;2.00;99.90;;;;;;5053140;28;20242;-82
2024/02/08 08:10:56;;;;;;;20.43;8.87;;;2.00;99.90;;;;;;5055059;28;20203;-82
2024/02/08 08:13:50;;;;;;;19.73;9.00;;;2.00;99.90;;;;;;5053767;28;20211;-82
2024/02/08 08:18:58;;;;;;;23.83;10.10;;;2.20;99.90;;;;;;5047514;28;20211;-82
2024/02/08 08:21:26;;;;;;;21.03;9.33;;;2.20;99.90;;;;;;5049072;28;20657;-82
2024/02/08 08:23:59;;;;;;;23.30;9.93;;;2.20;99.90;;;;;;5054153;28;20214;-82
2024/02/08 08:26:37;;;;;;;19.43;8.97;;;2.30;99.90;;;;;;5045898;28;20195;-82
2024/02/08 08:29:04;;;;;;;19.27;9.67;;;2.30;99.90;;;;;;5043407;28;20673;-82
2024/02/08 08:31:36;;;;;;;22.73;10.43;;;2.30;99.90;;;;;;5058677;28;20251;-81
2024/02/08 08:35:37;;;;;;;24.97;9.80;;;2.80;99.90;;;;;;5052350;28;20218;-82
2024/02/08 08:37:03;;;;;;;21.30;9.73;;;2.50;99.90;;;;;;5044171;28;20215;-82
2024/02/08 08:39:46;;;;;;;24.50;9.63;;;2.50;99.90;;;;;;5053735;28;20211;-81
2024/02/08 08:42:17;;;;;;;18.63;9.03;;;2.60;99.90;;;;;;5051088;28;20192;-79
2024/02/08 08:44:51;;;;;;;21.70;10.07;;;2.70;99.90;;;;;;5054943;28;20208;-82
2024/02/08 08:47:24;;;;;;;16.93;8.87;;;2.70;99.90;;;;;;5051876;28;20224;-81
2024/02/08 08:49:51;;;;;;;22.33;9.73;;;2.90;99.90;;;;;;5051210;28;20208;-82
2024/02/08 08:52:23;;;;;;;20.43;9.83;;;2.80;99.90;;;;;;5049555;28;20298;-81
2024/02/08 08:54:56;;;;;;;20.57;10.03;;;2.80;99.90;;;;;;5056332;28;20256;-82
2024/02/08 08:57:25;;;;;;;20.13;9.17;;;2.70;99.90;;;;;;5053250;28;20644;-82
2024/02/08 08:59:52;;;;;;;19.47;9.90;;;2.80;99.90;;;;;;5057061;28;20206;-82
2024/02/08 09:02:19;;;;;;;19.17;9.10;;;2.90;99.90;;;;;;5051703;28;20199;-81
2024/02/08 09:04:48;;;;;;;17.57;8.87;;;2.80;99.90;;;;;;5053652;28;20211;-81
2024/02/08 09:07:16;;;;;;;20.43;8.97;;;2.90;99.90;;;;;;5048404;28;20255;-79
2024/02/08 09:10:00;;;;;;;21.70;9.50;;;2.90;99.90;;;;;;5052647;28;20282;-82
2024/02/08 09:12:29;;;;;;;19.30;10.07;;;3.00;99.90;;;;;;5052235;28;20384;-82
2024/02/08 09:14:59;;;;;;;18.57;9.40;;;3.00;99.90;;;;;;5051693;28;20206;-83
2024/02/08 09:17:40;;;;;;;18.70;9.57;;;3.00;99.90;;;;;;5048549;28;20223;-82
2024/02/08 09:20:19;;;;;;;19.40;9.53;;;3.10;99.90;;;;;;5045715;28;20643;-82
2024/02/08 09:22:49;;;;;;;19.53;9.80;;;3.20;99.90;;;;;;5041013;28;20211;-82
2024/02/08 09:25:16;;;;;;;20.27;9.90;;;3.20;99.90;;;;;;5048953;28;20200;-82
2024/02/08 09:27:47;;;;;;;23.87;9.43;;;3.30;99.90;;;;;;5050581;28;20229;-82
2024/02/08 09:30:15;;;;;;;19.10;9.00;;;3.30;99.90;;;;;;5046729;28;20697;-82
2024/02/08 09:32:45;;;;;;;18.70;8.87;;;3.40;99.90;;;;;;5046551;28;20306;-82
2024/02/08 09:35:13;;;;;;;18.80;9.33;;;3.60;99.90;;;;;;5057082;28;20203;-81
2024/02/08 09:37:45;;;;;;;22.30;9.57;;;3.80;99.90;;;;;;5057806;28;20215;-82
2024/02/08 09:40:20;;;;;;;17.37;8.33;;;3.80;99.90;;;;;;5045765;28;20223;-80
2024/02/08 09:42:55;;;;;;;17.60;8.67;;;3.90;99.90;;;;;;5045899;28;20203;-82
2024/02/08 09:45:44;;;;;;;21.70;9.20;;;4.00;99.90;;;;;;5052754;28;20202;-80
2024/02/08 09:48:25;;;;;;;22.13;9.23;;;4.00;99.90;;;;;;5044504;28;20282;-83
2024/02/08 09:50:59;;;;;;;16.13;8.10;;;4.20;99.90;;;;;;5046379;28;20645;-82
2024/02/08 09:53:29;;;;;;;19.10;8.53;;;4.20;99.90;;;;;;5046572;28;20708;-81
2024/02/08 09:56:01;;;;;;;23.27;8.93;;;4.20;99.90;;;;;;5046928;28;20211;-82
2024/02/08 09:58:35;;;;;;;18.53;8.70;;;4.10;99.90;;;;;;5055056;28;20736;-82
2024/02/08 10:01:21;;;;;;;17.10;7.87;;;4.20;99.90;;;;;;5051523;28;20628;-81
2024/02/08 10:03:48;;;;;;;19.03;8.10;;;4.20;99.90;;;;;;5048031;28;20218;-82
2024/02/08 10:06:24;;;;;;;17.30;7.73;;;4.20;99.90;;;;;;5048207;28;20203;-81
2024/02/08 10:08:54;;;;;;;19.43;8.33;;;4.20;99.90;;;;;;5047740;28;20230;-81
2024/02/08 10:11:24;;;;;;;17.17;7.87;;;4.20;99.90;;;;;;5052969;28;20641;-82
2024/02/08 10:13:56;;;;;;;25.67;8.73;;;4.40;99.90;;;;;;5054611;28;20207;-80
2024/02/08 10:16:29;;;;;;;20.03;8.10;;;4.90;99.90;;;;;;5052598;28;20202;-80
2024/02/08 10:19:02;;;;;;;16.70;7.37;;;4.60;1.00;;;;;;5054505;28;20210;-81
2024/02/08 10:21:30;;;;;;;19.63;7.70;;;4.70;1.00;;;;;;5055950;28;20628;-80
2024/02/08 10:24:11;;;;;;;14.23;7.40;;;5.00;1.00;;;;;;5053576;28;20210;-81
2024/02/08 10:26:45;;;;;;;15.57;7.40;;;4.90;1.00;;;;;;5047626;28;20360;-83
2024/02/08 10:29:14;;;;;;;21.23;8.00;;;4.90;12.80;;;;;;5041183;28;20562;-82
2024/02/08 10:31:41;;;;;;;17.57;6.80;;;5.30;1.00;;;;;;5043508;28;20594;-82
2024/02/08 10:34:23;;;;;;;15.33;7.33;;;5.50;1.00;;;;;;5057761;28;20567;-82
2024/02/08 10:36:53;;;;;;;16.63;7.93;;;5.20;1.00;;;;;;5051921;28;20214;-82
2024/02/08 10:39:26;;;;;;;13.47;6.83;;;5.50;1.00;;;;;;5050640;28;20635;-82
2024/02/08 10:42:00;;;;;;;17.80;6.80;;;5.70;1.00;;;;;;5050736;28;20204;-82
2024/02/08 10:44:29;;;;;;;13.33;6.10;;;5.50;1.00;;;;;;5045349;28;20278;-82
2024/02/08 10:47:06;;;;;;;15.40;6.43;;;5.70;1.00;;;;;;5053349;28;20247;-82
2024/02/08 10:49:42;;;;;;;16.60;6.60;;;5.90;1.00;;;;;;5051821;28;20256;-81
2024/02/08 10:52:12;;;;;;;14.37;6.93;;;5.80;99.90;;;;;;5054898;28;20219;-80
2024/02/08 10:54:43;;;;;;;21.50;6.93;;;5.90;99.90;;;;;;5056403;28;20215;-82
2024/02/08 10:57:39;;;;;;;14.27;6.43;;;5.90;1.00;;;;;;5056617;28;20284;-82
2024/02/08 11:00:00;;;;;;;20.47;7.57;;;5.90;1.00;;;;;;5051701;28;20229;-82
2024/02/08 11:02:48;;;;;;;21.97;6.87;;;5.80;1.00;;;;;;5047325;28;20674;-82
2024/02/08 11:05:44;;;;;;;17.80;7.27;;;5.50;1.00;;;;;;5053161;28;20195;-81
2024/02/08 11:08:23;;;;;;;14.20;6.17;;;5.70;1.00;;;;;;5049094;28;20226;-82
2024/02/08 11:10:54;;;;;;;16.53;6.53;;;5.90;1.00;;;;;;5052223;28;20198;-82
2024/02/08 11:13:29;;;;;;;15.63;7.07;;;5.60;99.90;;;;;;5052142;28;20603;-81
2024/02/08 11:16:05;;;;;;;14.60;6.67;;;5.50;99.90;;;;;;5052205;28;20203;-82
2024/02/08 11:18:35;;;;;;;16.33;6.57;;;5.80;1.00;;;;;;5050398;28;20591;-82
2024/02/08 11:21:03;;;;;;;15.73;6.17;;;5.90;99.90;;;;;;5053293;28;20205;-81
2024/02/08 11:23:32;;;;;;;16.77;6.60;;;5.80;99.90;;;;;;5053762;28;20320;-81
2024/02/08 11:26:07;;;;;;;13.53;6.20;;;5.80;1.00;;;;;;5047447;28;20290;-81
2024/02/08 11:28:44;;;;;;;19.93;6.80;;;5.60;1.00;;;;;;5053034;28;20226;-80
2024/02/08 11:31:13;;;;;;;11.33;5.47;;;5.90;1.00;;;;;;5045587;28;20277;-81
2024/02/08 11:33:42;;;;;;;17.90;6.13;;;6.10;1.00;;;;;;5051549;28;20219;-81
2024/02/08 11:36:13;;;;;;;17.17;5.90;;;6.30;1.00;;;;;;5050200;28;20569;-82
2024/02/08 11:38:46;;;;;;;14.90;5.80;;;6.20;1.00;;;;;;5059458;28;20231;-82
2024/02/08 11:41:14;;;;;;;16.27;5.80;;;6.30;1.00;;;;;;5059411;28;20203;-82
2024/02/08 11:43:47;;;;;;;12.00;5.70;;;6.90;1.00;;;;;;5058139;28;20653;-81
2024/02/08 11:46:18;;;;;;;14.27;5.13;;;6.40;99.90;;;;;;5055821;28;20257;-82
2024/02/08 11:48:46;;;;;;;13.77;5.30;;;6.10;99.90;;;;;;5056969;28;20247;-80
2024/02/08 11:51:15;;;;;;;12.73;4.73;;;5.90;86.60;;;;;;5055668;28;20230;-82
2024/02/08 11:53:45;;;;;;;11.97;5.13;;;6.00;99.90;;;;;;5057218;28;20309;-82
2024/02/08 11:56:13;;;;;;;14.83;4.93;;;6.10;99.90;;;;;;5053492;28;20215;-81
2024/02/08 11:58:43;;;;;;;15.87;4.23;;;6.10;99.90;;;;;;5057970;28;20222;-81
2024/02/08 12:01:13;;;;;;;12.43;4.30;;;5.90;1.00;;;;;;5049755;28;20288;-80
2024/02/08 12:03:42;;;;;;;13.97;4.43;;;5.80;1.00;;;;;;5044367;28;20257;-80
2024/02/08 12:06:22;;;;;;;10.57;4.20;;;5.80;1.00;;;;;;5047303;28;20214;-80
2024/02/08 12:08:57;;;;;;;11.13;4.87;;;5.60;1.00;;;;;;5046160;28;20242;-76
2024/02/08 12:11:24;;;;;;;11.47;4.70;;;5.70;1.00;;;;;;5051840;28;20593;-79
2024/02/08 12:13:54;;;;;;;12.73;5.03;;;5.80;1.00;;;;;;5051030;28;20249;-80
2024/02/08 12:16:21;;;;;;;11.37;4.70;;;5.80;1.00;;;;;;5049770;28;20205;-78
2024/02/08 12:18:56;;;;;;;16.60;5.33;;;5.80;1.00;;;;;;5053396;28;20496;-80
2024/02/08 12:21:23;;;;;;;14.60;4.90;;;5.90;1.00;;;;;;5055335;28;20206;-80
2024/02/08 12:23:53;;;;;;;9.33;4.40;;;5.80;1.00;;;;;;5051994;28;20286;-80
2024/02/08 12:26:22;;;;;;;12.60;5.07;;;5.70;1.00;;;;;;5051693;28;20210;-78
2024/02/08 12:28:55;;;;;;;9.97;4.20;;;5.80;1.00;;;;;;5052406;28;20220;-80
2024/02/08 12:31:24;;;;;;;7.90;3.90;;;5.80;1.00;;;;;;5050143;28;20206;-80
2024/02/08 12:33:53;;;;;;;10.30;3.57;;;5.80;1.00;;;;;;5051281;28;20223;-80
2024/02/08 12:36:22;;;;;;;12.13;4.30;;;5.90;1.00;;;;;;5050464;28;20677;-81
2024/02/08 12:38:53;;;;;;;12.33;4.20;;;5.70;1.00;;;;;;5046396;28;20264;-80
2024/02/08 12:41:21;;;;;;;12.80;5.10;;;5.80;1.00;;;;;;5048331;28;20226;-81
2024/02/08 12:43:51;;;;;;;11.87;4.40;;;5.90;1.00;;;;;;5049088;28;20716;-79
2024/02/08 12:46:19;;;;;;;19.10;5.27;;;5.80;1.00;;;;;;5056813;28;20195;-79
2024/02/08 12:48:47;;;;;;;10.37;4.03;;;5.90;1.00;;;;;;5054425;28;20232;-79
2024/02/08 12:51:19;;;;;;;11.97;4.20;;;5.80;1.00;;;;;;5060234;28;20199;-79
2024/02/08 12:53:46;;;;;;;16.27;4.40;;;5.70;1.00;;;;;;5050529;28;20280;-80
2024/02/08 12:56:14;;;;;;;10.93;3.67;;;5.70;1.00;;;;;;5054630;28;20294;-80
2024/02/08 12:58:40;;;;;;;13.63;4.60;;;5.70;1.00;;;;;;5052755;28;20226;-79
2024/02/08 13:01:08;;;;;;;13.83;4.03;;;5.60;1.00;;;;;;5052837;28;20208;-80
2024/02/08 13:03:35;;;;;;;7.77;3.93;;;5.60;1.00;;;;;;5050368;28;20207;-80
2024/02/08 13:06:03;;;;;;;8.93;3.90;;;5.50;1.00;;;;;;5052150;28;20226;-78
2024/02/08 13:08:33;;;;;;;12.00;4.10;;;5.50;1.00;;;;;;5046878;28;20230;-81
2024/02/08 13:11:00;;;;;;;10.93;4.03;;;5.50;1.00;;;;;;5047578;28;20196;-81
2024/02/08 13:13:29;;;;;;;9.90;4.37;;;5.50;1.00;;;;;;5048821;28;21569;-81
2024/02/08 13:16:05;;;;;;;14.40;5.00;;;5.40;1.00;;;;;;5049287;28;20209;-80
2024/02/08 13:18:32;;;;;;;11.53;4.70;;;5.30;1.00;;;;;;5047984;28;20741;-79
2024/02/08 13:21:00;;;;;;;20.80;7.47;;;5.40;1.00;;;;;;5049265;28;20199;-80
2024/02/08 13:23:27;;;;;;;18.63;6.47;;;5.60;1.00;;;;;;5048054;28;20206;-80
2024/02/08 13:25:54;;;;;;;11.37;3.63;;;5.50;1.00;;;;;;5049404;28;20203;-80
2024/02/08 13:28:23;;;;;;;11.80;4.00;;;5.40;1.00;;;;;;5048740;28;20305;-80
2024/02/08 13:30:53;;;;;;;10.33;3.40;;;5.40;1.00;;;;;;5049896;28;20669;-80
2024/02/08 13:33:19;;;;;;;11.60;3.73;;;5.50;1.00;;;;;;5052740;28;20258;-81
2024/02/08 13:35:46;;;;;;;11.53;3.77;;;5.40;1.00;;;;;;5049884;28;20204;-80
2024/02/08 13:38:14;;;;;;;11.10;4.33;;;5.40;1.00;;;;;;5053846;28;20681;-80
2024/02/08 13:40:44;;;;;;;13.90;3.87;;;5.40;1.00;;;;;;5049158;28;20257;-80
2024/02/08 13:43:12;;;;;;;11.73;4.67;;;5.30;1.00;;;;;;5053031;28;20223;-79
2024/02/08 13:45:41;;;;;;;9.67;3.60;;;5.30;1.00;;;;;;5048142;28;20199;-79
2024/02/08 13:48:12;;;;;;;11.43;3.90;;;5.30;1.00;;;;;;5051750;28;20224;-80
2024/02/08 13:50:43;;;;;;;14.53;3.90;;;5.30;1.00;;;;;;5050639;28;20615;-78
2024/02/08 13:53:14;;;;;;;10.83;3.40;;;5.20;1.00;;;;;;5052248;28;20223;-79
2024/02/08 13:55:45;;;;;;;13.03;3.57;;;5.20;1.00;;;;;;5052071;28;20281;-80
2024/02/08 13:58:13;;;;;;;11.30;3.77;;;4.70;1.00;;;;;;5051806;28;20953;-80
2024/02/08 14:00:41;;;;;;;10.43;3.70;;;5.30;1.00;;;;;;5047194;28;20227;-78
2024/02/08 14:03:09;;;;;;;5.67;2.73;;;5.30;1.00;;;;;;5044267;28;20248;-79
2024/02/08 14:05:39;;;;;;;6.03;2.70;;;5.30;1.00;;;;;;5040443;28;20704;-80
2024/02/08 14:08:09;;;;;;;3.60;1.10;;;5.30;1.00;;;;;;5040960;28;20226;-79
2024/02/08 14:10:36;;;;;;;2.00;0.60;;;5.20;1.00;;;;;;5044652;28;20206;-80
2024/02/08 14:13:09;;;;;;;4.23;1.70;;;5.20;1.00;;;;;;5048155;28;20225;-78
2024/02/08 14:15:45;;;;;;;6.23;1.70;;;5.10;1.00;;;;;;5049855;28;20622;-78
2024/02/08 14:18:23;;;;;;;1.63;0.83;;;4.80;1.00;;;;;;5046782;28;20257;-79
2024/02/08 14:20:56;;;;;;;4.27;1.00;;;4.70;1.00;;;;;;5048734;28;20290;-79
2024/02/08 14:23:31;;;;;;;1.80;1.40;;;4.60;1.00;;;;;;5044462;28;20204;-77
2024/02/08 14:26:30;;;;;;;4.53;1.00;;;4.60;1.00;;;;;;5045066;28;20205;-79
2024/02/08 14:28:56;;;;;;;2.77;1.33;;;4.60;1.00;;;;;;5049408;28;20237;-78
2024/02/08 14:31:23;;;;;;;1.73;0.70;;;4.60;1.00;;;;;;5048804;28;20201;-80
2024/02/08 14:33:51;;;;;;;1.03;0.53;;;4.50;1.00;;;;;;5047803;28;20219;-80
2024/02/08 14:36:18;;;;;;;1.73;1.07;;;4.50;1.00;;;;;;5049659;28;20206;-80
2024/02/08 14:38:45;;;;;;;3.90;1.13;;;4.30;1.00;;;;;;5048191;28;20228;-80
2024/02/08 14:41:25;;;;;;;2.40;0.90;;;4.10;1.00;;;;;;5051680;28;20274;-81
2024/02/08 14:43:53;;;;;;;2.10;0.73;;;4.00;90.90;;;;;;5050894;28;20282;-80
2024/02/08 14:46:21;;;;;;;2.63;0.73;;;3.90;99.90;;;;;;5055696;28;20712;-81
2024/02/08 14:48:51;;;;;;;0.33;0.23;;;3.80;99.90;;;;;;5047548;28;20218;-80